createdAt,value
2023-02-07T00:01:23.272Z,143.00
2023-02-07T00:02:55.411Z,145.52
2023-02-07T00:04:27.265Z,127.24
2023-02-07T00:05:58.650Z,83.45
2023-02-07T00:09:30.994Z,121.11
2023-02-07T00:11:02.660Z,128.71
2023-02-07T00:12:34.063Z,202.47
2023-02-07T00:14:05.509Z,110.04
2023-02-07T00:15:37.320Z,119.14
2023-02-07T00:17:09.189Z,90.24
2023-02-07T00:18:40.626Z,87.30
2023-02-07T00:20:12.032Z,65.04
2023-02-07T00:21:44.045Z,56.78
2023-02-07T00:23:15.452Z,59.38
2023-02-07T00:24:47.077Z,68.47
2023-02-07T00:26:18.582Z,53.38
2023-02-07T00:27:49.954Z,54.98
2023-02-07T00:29:21.797Z,55.59
2023-02-07T00:30:53.163Z,52.41
2023-02-07T00:32:24.568Z,51.72
2023-02-07T00:33:55.906Z,50.59
2023-02-07T00:35:27.227Z,51.04
2023-02-07T00:36:58.410Z,51.61
2023-02-07T00:38:29.715Z,50.23
2023-02-07T00:40:01.163Z,47.95
2023-02-07T00:41:32.331Z,52.38
2023-02-07T00:43:03.719Z,49.34
2023-02-07T00:44:35.016Z,50.60
2023-02-07T00:46:06.480Z,49.49
2023-02-07T00:47:38.134Z,49.43
2023-02-07T00:49:14.542Z,51.18
2023-02-07T00:50:46.045Z,50.57
2023-02-07T00:52:17.248Z,49.31
2023-02-07T00:53:48.553Z,49.03
2023-02-07T00:55:19.861Z,50.93
2023-02-07T00:56:51.212Z,49.33
2023-02-07T00:58:23.771Z,45.99
2023-02-07T00:59:55.349Z,48.66
2023-02-07T01:01:26.676Z,49.23
2023-02-07T01:02:58.032Z,48.18
2023-02-07T01:04:29.459Z,47.34
2023-02-07T01:06:00.867Z,48.76
2023-02-07T01:07:32.146Z,47.84
2023-02-07T01:09:03.517Z,48.85
2023-02-07T01:10:34.645Z,47.22
2023-02-07T01:12:06.171Z,42.77
2023-02-07T01:13:37.827Z,46.93
2023-02-07T01:15:09.285Z,48.56
2023-02-07T01:16:40.714Z,49.37
2023-02-07T01:18:11.971Z,45.45
2023-02-07T01:19:43.173Z,47.44
2023-02-07T01:21:15.677Z,46.50
2023-02-07T01:22:47.162Z,44.39
2023-02-07T01:24:18.556Z,44.25
2023-02-07T01:25:50.041Z,44.43
2023-02-07T01:27:21.642Z,41.52
2023-02-07T01:28:53.189Z,41.66
2023-02-07T01:30:24.821Z,44.90
2023-02-07T01:31:56.497Z,41.41
2023-02-07T01:33:27.793Z,41.35
2023-02-07T01:34:59.253Z,42.11
2023-02-07T01:36:30.637Z,41.00
2023-02-07T01:38:01.922Z,41.52
2023-02-07T01:39:33.342Z,38.50
2023-02-07T01:41:04.625Z,36.96
2023-02-07T01:42:36.139Z,39.05
2023-02-07T01:44:08.023Z,37.89
2023-02-07T01:45:39.855Z,35.34
2023-02-07T01:47:11.659Z,35.69
2023-02-07T01:48:43.184Z,36.29
2023-02-07T01:50:14.540Z,34.62
2023-02-07T01:51:45.842Z,35.96
2023-02-07T01:53:17.279Z,31.41
2023-02-07T01:54:53.546Z,36.89
2023-02-07T01:56:31.523Z,35.23
2023-02-07T01:58:03.511Z,34.91
2023-02-07T01:59:34.841Z,37.02
2023-02-07T02:01:06.166Z,35.73
2023-02-07T02:02:53.500Z,34.40
2023-02-07T02:04:24.847Z,34.27
2023-02-07T02:05:56.357Z,37.25
2023-02-07T02:07:27.657Z,37.69
2023-02-07T02:08:59.207Z,34.95
2023-02-07T02:10:31.005Z,36.83
2023-02-07T02:12:02.924Z,34.85
2023-02-07T02:13:34.230Z,37.13
2023-02-07T02:15:05.485Z,37.13
2023-02-07T02:16:42.822Z,36.72
2023-02-07T02:18:14.017Z,37.88
2023-02-07T02:19:45.284Z,33.64
2023-02-07T02:21:16.619Z,33.48
2023-02-07T02:22:47.920Z,34.89
2023-02-07T02:24:19.475Z,31.98
2023-02-07T02:25:50.887Z,34.74
2023-02-07T02:27:22.158Z,32.62
2023-02-07T02:28:53.593Z,33.97
2023-02-07T02:30:25.118Z,34.75
2023-02-07T02:31:56.628Z,34.56
2023-02-07T02:33:27.865Z,35.62
2023-02-07T02:34:59.109Z,37.38
2023-02-07T02:36:31.189Z,34.38
2023-02-07T02:38:02.656Z,38.68
2023-02-07T02:39:34.084Z,38.68
2023-02-07T02:41:05.467Z,37.66
2023-02-07T02:42:38.069Z,39.93
2023-02-07T02:44:09.718Z,37.26
2023-02-07T02:45:41.033Z,41.40
2023-02-07T02:47:17.299Z,40.72
2023-02-07T02:48:59.942Z,38.28
2023-02-07T02:50:31.251Z,36.70
2023-02-07T02:52:02.497Z,39.69
2023-02-07T02:53:34.125Z,41.51
2023-02-07T02:55:05.385Z,39.31
2023-02-07T02:56:36.777Z,39.10
2023-02-07T02:58:08.014Z,39.80
2023-02-07T02:59:39.240Z,36.34
2023-02-07T03:01:10.921Z,36.19
2023-02-07T03:03:02.278Z,36.56
2023-02-07T03:04:33.760Z,38.70
2023-02-07T03:06:05.123Z,39.61
2023-02-07T03:07:36.453Z,36.89
2023-02-07T03:09:07.680Z,35.28
2023-02-07T03:10:38.991Z,34.46
2023-02-07T03:12:10.342Z,37.64
2023-02-07T03:13:41.807Z,38.95
2023-02-07T03:15:13.148Z,37.90
2023-02-07T03:16:44.823Z,41.07
2023-02-07T03:18:16.226Z,38.14
2023-02-07T03:19:47.590Z,37.01
2023-02-07T03:21:18.869Z,37.47
2023-02-07T03:22:50.393Z,34.65
2023-02-07T03:24:21.724Z,32.05
2023-02-07T03:25:53.278Z,32.95
2023-02-07T03:27:24.665Z,33.98
2023-02-07T03:28:56.033Z,32.34
2023-02-07T03:30:27.274Z,31.48
2023-02-07T03:31:58.598Z,31.55
2023-02-07T03:33:34.964Z,32.99
2023-02-07T03:35:06.352Z,31.76
2023-02-07T03:36:37.712Z,35.64
2023-02-07T03:38:09.062Z,32.92
2023-02-07T03:39:40.359Z,33.65
2023-02-07T03:41:11.772Z,33.49
2023-02-07T03:42:43.344Z,35.19
2023-02-07T03:44:14.726Z,32.70
2023-02-07T03:45:46.090Z,31.06
2023-02-07T03:47:17.398Z,36.53
2023-02-07T03:48:48.574Z,33.71
2023-02-07T03:50:19.878Z,33.74
2023-02-07T03:51:51.449Z,32.80
2023-02-07T03:53:23.234Z,35.63
2023-02-07T03:54:54.476Z,29.73
2023-02-07T03:56:25.692Z,30.85
2023-02-07T03:58:02.254Z,32.62
2023-02-07T03:59:33.542Z,30.78
2023-02-07T04:01:04.958Z,30.89
2023-02-07T04:02:36.262Z,33.15
2023-02-07T04:04:07.648Z,30.13
2023-02-07T04:05:39.231Z,30.39
2023-02-07T04:07:11.049Z,32.07
2023-02-07T04:08:42.211Z,34.91
2023-02-07T04:10:18.496Z,32.94
2023-02-07T04:11:55.117Z,31.57
2023-02-07T04:13:26.385Z,34.28
2023-02-07T04:14:58.266Z,33.39
2023-02-07T04:16:29.961Z,34.65
2023-02-07T04:18:01.811Z,29.84
2023-02-07T04:19:33.347Z,32.73
2023-02-07T04:21:04.493Z,35.05
2023-02-07T04:22:36.127Z,33.92
2023-02-07T04:24:07.612Z,34.21
2023-02-07T04:25:39.136Z,32.84
2023-02-07T04:27:10.579Z,32.69
2023-02-07T04:28:41.997Z,31.22
2023-02-07T04:30:13.218Z,31.10
2023-02-07T04:31:44.986Z,30.77
2023-02-07T04:33:16.385Z,32.32
2023-02-07T04:34:47.675Z,33.24
2023-02-07T04:36:18.937Z,29.20
2023-02-07T04:37:50.187Z,34.03
2023-02-07T04:39:21.748Z,32.72
2023-02-07T04:40:53.533Z,28.12
2023-02-07T04:42:24.974Z,33.56
2023-02-07T04:43:56.417Z,32.49
2023-02-07T04:45:27.767Z,32.70
2023-02-07T04:46:59.385Z,31.47
2023-02-07T04:48:30.795Z,32.90
2023-02-07T04:50:02.652Z,33.63
2023-02-07T04:51:33.959Z,32.89
2023-02-07T04:53:05.665Z,28.89
2023-02-07T04:54:42.092Z,30.34
2023-02-07T04:56:13.426Z,31.56
2023-02-07T04:57:44.922Z,30.95
2023-02-07T04:59:16.401Z,32.84
2023-02-07T05:00:48.137Z,30.66
2023-02-07T05:02:19.642Z,31.52
2023-02-07T05:03:50.820Z,32.54
2023-02-07T05:05:22.192Z,32.57
2023-02-07T05:06:53.559Z,33.09
2023-02-07T05:08:26.269Z,32.98
2023-02-07T05:09:57.722Z,30.66
2023-02-07T05:11:29.293Z,32.50
2023-02-07T05:13:00.398Z,33.37
2023-02-07T05:14:36.939Z,30.27
2023-02-07T05:16:08.177Z,30.51
2023-02-07T05:17:39.492Z,33.16
2023-02-07T05:19:10.723Z,31.43
2023-02-07T05:20:42.484Z,31.81
2023-02-07T05:22:13.893Z,28.19
2023-02-07T05:23:45.287Z,28.12
2023-02-07T05:25:39.241Z,30.48
2023-02-07T05:27:10.688Z,28.98
2023-02-07T05:28:42.114Z,29.26
2023-02-07T05:30:13.271Z,29.28
2023-02-07T05:31:44.772Z,28.96
2023-02-07T05:33:21.242Z,26.00
2023-02-07T05:35:27.836Z,29.38
2023-02-07T05:37:04.457Z,28.58
2023-02-07T05:38:35.819Z,30.58
2023-02-07T05:40:13.733Z,29.97
2023-02-07T05:41:55.241Z,28.93
2023-02-07T05:43:26.597Z,30.18
2023-02-07T05:44:57.850Z,25.70
2023-02-07T05:46:34.304Z,30.08
2023-02-07T05:48:10.654Z,27.40
2023-02-07T05:49:41.951Z,26.05
2023-02-07T05:51:37.063Z,25.68
2023-02-07T05:53:08.662Z,23.84
2023-02-07T05:54:40.160Z,24.76
2023-02-07T05:56:26.539Z,24.49
2023-02-07T05:57:57.923Z,24.56
2023-02-07T05:59:29.386Z,23.62
2023-02-07T06:01:01.846Z,23.53
2023-02-07T06:02:33.047Z,22.64
2023-02-07T06:04:04.780Z,26.09
2023-02-07T06:05:36.587Z,25.75
2023-02-07T06:07:07.931Z,26.31
2023-02-07T06:08:39.563Z,26.51
2023-02-07T06:10:11.423Z,27.55
2023-02-07T06:11:43.054Z,22.00
2023-02-07T06:13:14.620Z,25.64
2023-02-07T06:14:46.012Z,24.82
2023-02-07T06:16:17.276Z,26.44
2023-02-07T06:17:49.192Z,26.85
2023-02-07T06:19:20.741Z,25.47
2023-02-07T06:20:52.399Z,27.09
2023-02-07T06:22:24.550Z,24.98
2023-02-07T06:23:56.537Z,28.35
2023-02-07T06:25:50.784Z,26.05
2023-02-07T06:27:22.293Z,26.06
2023-02-07T06:28:54.344Z,26.66
2023-02-07T06:30:25.692Z,26.99
2023-02-07T06:31:57.268Z,28.00
2023-02-07T06:33:29.786Z,27.29
2023-02-07T06:35:01.296Z,25.20
2023-02-07T06:36:33.217Z,29.43
2023-02-07T06:38:04.650Z,28.14
2023-02-07T06:39:35.925Z,23.00
2023-02-07T06:41:07.188Z,25.44
2023-02-07T06:42:38.634Z,27.55
2023-02-07T06:44:09.860Z,26.32
2023-02-07T06:45:41.174Z,25.03
2023-02-07T06:47:12.519Z,26.52
2023-02-07T06:48:43.692Z,26.21
2023-02-07T06:50:14.935Z,25.80
2023-02-07T06:51:46.310Z,27.85
2023-02-07T06:53:17.462Z,25.96
2023-02-07T06:54:48.762Z,25.19
2023-02-07T06:56:20.318Z,22.24
2023-02-07T06:57:51.852Z,25.32
2023-02-07T06:59:23.516Z,24.98
2023-02-07T07:00:54.878Z,24.84
2023-02-07T07:02:26.439Z,25.08
2023-02-07T07:03:57.905Z,26.10
2023-02-07T07:05:29.078Z,24.79
2023-02-07T07:07:01.127Z,24.72
2023-02-07T07:08:32.411Z,23.04
2023-02-07T07:10:03.982Z,24.65
2023-02-07T07:11:35.403Z,24.18
2023-02-07T07:13:07.063Z,24.60
2023-02-07T07:14:38.716Z,24.53
2023-02-07T07:16:10.672Z,24.15
2023-02-07T07:17:42.385Z,24.40
2023-02-07T07:19:13.889Z,22.92
2023-02-07T07:20:45.232Z,23.85
2023-02-07T07:22:16.451Z,23.70
2023-02-07T07:23:47.721Z,25.67
2023-02-07T07:25:19.073Z,24.37
2023-02-07T07:26:50.666Z,21.74
2023-02-07T07:28:22.002Z,24.82
2023-02-07T07:29:53.692Z,23.56
2023-02-07T07:31:25.056Z,25.36
2023-02-07T07:32:56.224Z,23.44
2023-02-07T07:34:27.408Z,24.25
2023-02-07T07:35:58.866Z,23.15
2023-02-07T07:37:30.139Z,24.48
2023-02-07T07:39:01.623Z,24.47
2023-02-07T07:40:33.021Z,22.94
2023-02-07T07:42:04.386Z,23.27
2023-02-07T07:43:35.827Z,22.36
2023-02-07T07:45:07.226Z,21.91
2023-02-07T07:46:38.994Z,24.50
2023-02-07T07:48:10.296Z,24.34
2023-02-07T07:49:41.598Z,21.91
2023-02-07T07:51:13.015Z,23.84
2023-02-07T07:52:44.310Z,24.45
2023-02-07T07:54:15.510Z,23.40
2023-02-07T07:55:46.990Z,25.52
2023-02-07T07:57:20.954Z,21.73
2023-02-07T07:58:52.869Z,23.70
2023-02-07T08:00:24.279Z,25.46
2023-02-07T08:01:55.681Z,24.51
2023-02-07T08:03:26.985Z,23.41
2023-02-07T08:04:58.165Z,24.59
2023-02-07T08:06:29.629Z,24.10
2023-02-07T08:08:00.973Z,25.24
2023-02-07T08:09:32.345Z,25.22
2023-02-07T08:11:04.173Z,24.84
2023-02-07T08:12:35.363Z,24.89
2023-02-07T08:14:07.292Z,23.80
2023-02-07T08:15:39.078Z,25.81
2023-02-07T08:17:10.391Z,23.60
2023-02-07T08:18:41.832Z,23.87
2023-02-07T08:20:13.067Z,24.86
2023-02-07T08:21:44.911Z,24.58
2023-02-07T08:23:16.257Z,25.99
2023-02-07T08:24:47.537Z,25.32
2023-02-07T08:26:18.939Z,23.39
2023-02-07T08:27:50.170Z,23.86
2023-02-07T08:29:21.925Z,25.83
2023-02-07T08:30:53.290Z,24.08
2023-02-07T08:32:24.805Z,23.04
2023-02-07T08:33:55.998Z,24.31
2023-02-07T08:35:27.377Z,23.44
2023-02-07T08:36:58.685Z,21.93
2023-02-07T08:38:30.186Z,21.21
2023-02-07T08:40:01.585Z,22.24
2023-02-07T08:41:33.028Z,23.40
2023-02-07T08:43:04.289Z,20.22
2023-02-07T08:44:35.406Z,21.30
2023-02-07T08:46:06.782Z,21.87
2023-02-07T08:47:38.477Z,22.94
2023-02-07T08:49:09.932Z,22.24
2023-02-07T08:50:41.414Z,22.24
2023-02-07T08:52:29.733Z,23.28
2023-02-07T08:54:01.033Z,21.82
2023-02-07T08:55:32.221Z,20.50
2023-02-07T08:57:03.419Z,23.95
2023-02-07T08:58:34.646Z,23.99
2023-02-07T09:00:06.147Z,21.19
2023-02-07T09:01:37.737Z,20.97
2023-02-07T09:03:09.132Z,21.52
2023-02-07T09:04:40.653Z,20.37
2023-02-07T09:06:12.220Z,20.73
2023-02-07T09:07:44.024Z,23.49
2023-02-07T09:09:16.234Z,21.86
2023-02-07T09:10:49.023Z,21.12
2023-02-07T09:12:20.286Z,19.99
2023-02-07T09:13:57.279Z,25.61
2023-02-07T09:15:28.696Z,21.06
2023-02-07T09:17:00.163Z,24.78
2023-02-07T09:18:31.528Z,22.09
2023-02-07T09:20:02.904Z,20.78
2023-02-07T09:21:34.345Z,22.74
2023-02-07T09:23:05.620Z,20.60
2023-02-07T09:24:36.958Z,23.68
2023-02-07T09:26:08.599Z,20.58
2023-02-07T09:27:39.794Z,21.21
2023-02-07T09:29:11.112Z,22.77
2023-02-07T09:30:42.582Z,21.55
2023-02-07T09:32:14.960Z,23.03
2023-02-07T09:33:46.238Z,20.10
2023-02-07T09:35:17.611Z,19.25
2023-02-07T09:36:48.791Z,17.74
2023-02-07T09:38:19.998Z,18.47
2023-02-07T09:39:51.250Z,17.81
2023-02-07T09:41:22.710Z,18.68
2023-02-07T09:42:54.060Z,19.98
2023-02-07T09:44:25.591Z,19.54
2023-02-07T09:45:57.170Z,19.64
2023-02-07T09:47:28.597Z,19.19
2023-02-07T09:48:59.895Z,15.75
2023-02-07T09:50:31.373Z,16.88
2023-02-07T09:52:02.809Z,16.66
2023-02-07T09:53:34.149Z,15.16
2023-02-07T09:55:05.673Z,14.48
2023-02-07T09:56:36.909Z,14.98
2023-02-07T09:58:08.067Z,14.13
2023-02-07T09:59:39.496Z,12.98
2023-02-07T10:01:10.863Z,13.64
2023-02-07T10:02:42.236Z,11.38
2023-02-07T10:04:13.725Z,12.89
2023-02-07T10:05:44.967Z,11.52
2023-02-07T10:07:17.149Z,10.30
2023-02-07T10:08:48.566Z,9.97
2023-02-07T10:10:19.914Z,9.68
2023-02-07T10:11:51.610Z,8.94
2023-02-07T10:13:23.014Z,8.85
2023-02-07T10:14:54.636Z,11.81
2023-02-07T10:16:26.003Z,9.02
2023-02-07T10:17:57.649Z,9.04
2023-02-07T10:19:28.979Z,10.00
2023-02-07T10:21:00.210Z,11.57
2023-02-07T10:22:31.457Z,10.61
2023-02-07T10:24:02.869Z,11.18
2023-02-07T10:25:34.298Z,9.97
2023-02-07T10:27:05.492Z,10.96
2023-02-07T10:28:36.804Z,11.52
2023-02-07T10:30:08.210Z,9.49
2023-02-07T10:31:39.885Z,10.18
2023-02-07T10:33:11.079Z,11.44
2023-02-07T10:34:42.406Z,9.32
2023-02-07T10:36:13.623Z,8.13
2023-02-07T10:37:44.826Z,8.24
2023-02-07T10:41:12.509Z,7.22
2023-02-07T10:42:43.954Z,8.73
2023-02-07T10:44:15.285Z,14.92
2023-02-07T10:45:49.885Z,11.28
2023-02-07T10:47:23.078Z,9.90
2023-02-07T10:48:54.385Z,8.85
2023-02-07T10:50:30.235Z,15.27
2023-02-07T10:52:01.728Z,9.66
2023-02-07T10:53:35.342Z,8.52
2023-02-07T10:55:07.937Z,7.48
2023-02-07T10:56:40.883Z,7.16
2023-02-07T10:58:22.439Z,7.65
2023-02-07T10:59:54.771Z,7.77
2023-02-07T11:01:26.046Z,6.56
2023-02-07T11:03:02.390Z,6.81
2023-02-07T11:04:34.142Z,5.44
2023-02-07T11:06:05.556Z,5.98
2023-02-07T11:07:47.600Z,6.53
2023-02-07T11:09:29.394Z,6.59
2023-02-07T11:11:01.003Z,7.37
2023-02-07T11:12:32.453Z,7.42
2023-02-07T11:14:03.896Z,5.37
2023-02-07T11:15:35.500Z,6.02
2023-02-07T11:17:06.997Z,6.78
2023-02-07T11:18:38.290Z,5.82
2023-02-07T11:20:09.698Z,6.76
2023-02-07T11:21:41.110Z,6.35
2023-02-07T11:23:12.383Z,5.45
2023-02-07T11:24:43.757Z,6.45
2023-02-07T11:26:15.337Z,6.00
2023-02-07T11:27:46.644Z,6.87
2023-02-07T11:29:17.920Z,7.18
2023-02-07T11:30:49.389Z,7.76
2023-02-07T11:32:21.498Z,8.95
2023-02-07T11:33:54.213Z,8.29
2023-02-07T11:35:25.503Z,7.97
2023-02-07T11:36:57.002Z,7.29
2023-02-07T11:38:28.280Z,7.14
2023-02-07T11:39:59.572Z,7.54
2023-02-07T11:41:30.869Z,7.21
2023-02-07T11:43:07.255Z,6.58
2023-02-07T11:44:39.770Z,7.35
2023-02-07T11:46:11.105Z,8.21
2023-02-07T11:47:42.604Z,7.62
2023-02-07T11:49:13.926Z,7.42
2023-02-07T11:50:45.274Z,7.38
2023-02-07T11:52:16.670Z,7.14
2023-02-07T11:53:48.068Z,7.42
2023-02-07T11:55:19.394Z,6.85
2023-02-07T11:56:50.857Z,6.31
2023-02-07T11:58:23.411Z,6.32
2023-02-07T11:59:54.663Z,6.95
2023-02-07T12:01:26.158Z,7.68
2023-02-07T12:02:58.437Z,7.39
2023-02-07T12:04:30.273Z,7.98
2023-02-07T12:06:01.598Z,6.82
2023-02-07T12:07:32.977Z,7.65
2023-02-07T12:09:04.358Z,7.00
2023-02-07T12:10:35.990Z,7.65
2023-02-07T12:12:07.787Z,7.57
2023-02-07T12:13:39.141Z,8.39
2023-02-07T12:15:10.456Z,9.07
2023-02-07T12:16:42.019Z,7.89
2023-02-07T12:18:13.379Z,8.01
2023-02-07T12:19:44.881Z,7.85
2023-02-07T12:21:16.561Z,9.18
2023-02-07T12:22:58.754Z,7.71
2023-02-07T12:24:34.940Z,7.27
2023-02-07T12:26:06.426Z,7.40
2023-02-07T12:27:37.844Z,8.13
2023-02-07T12:29:13.464Z,8.32
2023-02-07T12:30:45.352Z,8.67
2023-02-07T12:32:17.423Z,8.53
2023-02-07T12:33:49.043Z,8.12
2023-02-07T12:35:20.725Z,8.59
2023-02-07T12:36:52.044Z,7.81
2023-02-07T12:38:23.609Z,7.58
2023-02-07T12:39:55.019Z,8.23
2023-02-07T12:41:26.687Z,7.63
2023-02-07T12:42:58.246Z,7.80
2023-02-07T12:44:29.486Z,6.94
2023-02-07T12:46:00.966Z,8.82
2023-02-07T12:47:33.450Z,8.75
2023-02-07T12:49:04.965Z,8.62
2023-02-07T12:50:36.400Z,8.59
2023-02-07T12:52:07.735Z,7.85
2023-02-07T12:53:39.112Z,7.96
2023-02-07T12:55:10.622Z,9.08
2023-02-07T12:56:41.980Z,8.06
2023-02-07T12:58:13.374Z,6.93
2023-02-07T12:59:44.859Z,7.40
2023-02-07T13:01:16.254Z,8.68
2023-02-07T13:02:47.772Z,8.14
2023-02-07T13:04:19.046Z,8.66
2023-02-07T13:05:50.455Z,7.48
2023-02-07T13:07:21.796Z,8.01
2023-02-07T13:08:53.319Z,7.22
2023-02-07T13:10:24.929Z,7.68
2023-02-07T13:11:56.468Z,7.77
2023-02-07T13:13:27.850Z,7.67
2023-02-07T13:14:59.340Z,6.64
2023-02-07T13:16:30.712Z,8.06
2023-02-07T13:18:03.261Z,6.90
2023-02-07T13:19:39.800Z,7.96
2023-02-07T13:21:21.140Z,8.39
2023-02-07T13:22:58.962Z,7.08
2023-02-07T13:24:30.235Z,8.44
2023-02-07T13:26:01.608Z,7.54
2023-02-07T13:27:33.056Z,7.85
2023-02-07T13:29:04.304Z,8.14
2023-02-07T13:30:35.808Z,9.22
2023-02-07T13:32:07.262Z,9.07
2023-02-07T13:33:38.742Z,8.92
2023-02-07T13:35:10.013Z,8.02
2023-02-07T13:36:41.560Z,8.46
2023-02-07T13:38:12.999Z,8.17
2023-02-07T13:39:44.537Z,8.87
2023-02-07T13:41:15.896Z,8.13
2023-02-07T13:42:47.269Z,8.64
2023-02-07T13:44:18.505Z,8.17
2023-02-07T13:45:50.980Z,6.89
2023-02-07T13:47:22.484Z,8.02
2023-02-07T13:48:53.744Z,7.93
2023-02-07T13:50:25.225Z,8.22
2023-02-07T13:51:56.942Z,7.46
2023-02-07T13:53:28.316Z,9.20
2023-02-07T13:54:59.696Z,8.23
2023-02-07T13:56:30.988Z,9.01
2023-02-07T13:58:02.324Z,8.22
2023-02-07T13:59:33.805Z,8.75
2023-02-07T14:01:05.446Z,7.71
2023-02-07T14:02:36.821Z,9.50
2023-02-07T14:04:08.203Z,9.13
2023-02-07T14:05:39.898Z,7.26
2023-02-07T14:07:11.347Z,8.31
2023-02-07T14:08:42.879Z,8.00
2023-02-07T14:10:14.218Z,6.71
2023-02-07T14:11:45.538Z,7.83
2023-02-07T14:13:16.968Z,7.61
2023-02-07T14:15:01.476Z,8.52
2023-02-07T14:16:33.721Z,8.60
2023-02-07T14:18:05.158Z,9.67
2023-02-07T14:19:36.721Z,10.15
2023-02-07T14:21:08.022Z,8.51
2023-02-07T14:22:39.357Z,8.39
2023-02-07T14:24:10.564Z,8.18
2023-02-07T14:25:42.236Z,7.57
2023-02-07T14:27:13.704Z,8.46
2023-02-07T14:28:45.114Z,8.73
2023-02-07T14:30:16.399Z,8.00
2023-02-07T14:31:48.016Z,7.97
2023-02-07T14:33:19.742Z,9.79
2023-02-07T14:34:51.357Z,9.64
2023-02-07T14:36:22.584Z,8.45
2023-02-07T14:37:53.904Z,9.88
2023-02-07T14:39:25.185Z,9.71
2023-02-07T14:41:10.028Z,9.53
2023-02-07T14:42:42.168Z,8.42
2023-02-07T14:44:13.422Z,8.78
2023-02-07T14:45:44.879Z,8.44
2023-02-07T14:47:16.207Z,8.66
2023-02-07T14:48:47.611Z,9.62
2023-02-07T14:50:19.013Z,8.54
2023-02-07T14:51:50.408Z,8.96
2023-02-07T14:53:21.851Z,9.56
2023-02-07T14:54:53.366Z,8.91
2023-02-07T14:56:24.927Z,8.93
2023-02-07T14:57:56.201Z,8.17
2023-02-07T14:59:27.694Z,7.69
2023-02-07T15:01:04.036Z,7.83
2023-02-07T15:02:35.360Z,10.79
2023-02-07T15:04:06.746Z,8.39
2023-02-07T15:05:37.975Z,9.23
2023-02-07T15:07:09.527Z,8.34
2023-02-07T15:08:40.740Z,8.25
2023-02-07T15:10:12.032Z,9.59
2023-02-07T15:11:43.440Z,9.17
2023-02-07T15:13:14.941Z,7.64
2023-02-07T15:14:46.820Z,7.30
2023-02-07T15:16:18.600Z,8.88
2023-02-07T15:17:49.878Z,8.17
2023-02-07T15:19:21.143Z,9.93
2023-02-07T15:20:52.460Z,7.78
2023-02-07T15:22:25.774Z,8.65
2023-02-07T15:23:57.232Z,7.02
2023-02-07T15:25:28.774Z,8.12
2023-02-07T15:27:00.146Z,7.32
2023-02-07T15:28:31.552Z,7.25
2023-02-07T15:30:02.801Z,8.20
2023-02-07T15:31:34.390Z,8.09
2023-02-07T15:33:06.996Z,8.14
2023-02-07T15:34:38.609Z,9.00
2023-02-07T15:36:09.967Z,8.92
2023-02-07T15:37:41.574Z,7.96
2023-02-07T15:39:12.812Z,7.76
2023-02-07T15:40:44.909Z,8.95
2023-02-07T15:42:16.377Z,7.98
2023-02-07T15:43:47.689Z,8.63
2023-02-07T15:45:24.254Z,8.80
2023-02-07T15:46:56.164Z,9.10
2023-02-07T15:48:37.375Z,9.85
2023-02-07T15:50:13.632Z,9.11
2023-02-07T15:51:44.940Z,8.56
2023-02-07T15:53:16.196Z,7.85
2023-02-07T15:54:47.954Z,8.80
2023-02-07T15:56:19.368Z,7.96
2023-02-07T15:57:50.677Z,8.75
2023-02-07T15:59:53.065Z,9.07
2023-02-07T16:01:24.708Z,8.58
2023-02-07T16:03:17.941Z,8.64
2023-02-07T16:04:49.821Z,9.42
2023-02-07T16:06:21.397Z,9.96
2023-02-07T16:08:14.499Z,9.82
2023-02-07T16:09:46.397Z,8.63
2023-02-07T16:11:17.874Z,9.42
2023-02-07T16:12:49.345Z,10.82
2023-02-07T16:14:20.686Z,9.79
2023-02-07T16:15:51.978Z,9.82
2023-02-07T16:17:23.381Z,9.05
2023-02-07T16:18:54.736Z,10.35
2023-02-07T16:20:26.667Z,9.25
2023-02-07T16:22:02.988Z,8.75
2023-02-07T16:23:34.283Z,9.92
2023-02-07T16:25:05.695Z,9.77
2023-02-07T16:26:37.080Z,9.77
2023-02-07T16:28:08.703Z,10.49
2023-02-07T16:29:40.054Z,8.32
2023-02-07T16:31:11.397Z,10.59
2023-02-07T16:32:42.749Z,10.48
2023-02-07T16:34:13.952Z,9.22
2023-02-07T16:35:45.163Z,9.53
2023-02-07T16:37:16.529Z,9.12
2023-02-07T16:38:48.091Z,11.12
2023-02-07T16:40:19.331Z,9.68
2023-02-07T16:42:00.919Z,8.56
2023-02-07T16:43:37.340Z,9.37
2023-02-07T16:45:18.861Z,9.54
2023-02-07T16:47:05.893Z,10.53
2023-02-07T16:48:37.158Z,11.36
2023-02-07T16:50:08.579Z,12.51
2023-02-07T16:51:39.860Z,10.91
2023-02-07T16:53:11.041Z,10.23
2023-02-07T16:54:42.320Z,12.29
2023-02-07T16:56:13.662Z,12.10
2023-02-07T16:57:45.417Z,10.79
2023-02-07T16:59:21.849Z,10.46
2023-02-07T17:00:58.193Z,12.80
2023-02-07T17:02:34.641Z,11.36
2023-02-07T17:04:05.855Z,11.26
2023-02-07T17:05:43.414Z,11.34
2023-02-07T17:07:14.930Z,12.22
2023-02-07T17:08:46.283Z,10.90
2023-02-07T17:10:27.529Z,10.61
2023-02-07T17:11:58.860Z,11.13
2023-02-07T17:13:56.382Z,11.63
2023-02-07T17:15:27.933Z,13.26
2023-02-07T17:17:32.248Z,11.15
2023-02-07T17:19:03.783Z,11.75
2023-02-07T17:20:40.663Z,10.92
2023-02-07T17:22:12.509Z,12.87
2023-02-07T17:23:43.918Z,11.72
2023-02-07T17:25:15.194Z,11.44
2023-02-07T17:26:46.553Z,11.11
2023-02-07T17:28:20.145Z,12.93
2023-02-07T17:30:05.209Z,12.45
2023-02-07T17:31:36.868Z,11.68
2023-02-07T17:33:08.754Z,12.62
2023-02-07T17:34:45.537Z,13.07
2023-02-07T17:36:17.514Z,11.42
2023-02-07T17:37:49.128Z,11.08
2023-02-07T17:39:31.175Z,13.82
2023-02-07T17:41:04.399Z,13.42
2023-02-07T17:42:40.864Z,14.10
2023-02-07T17:44:43.607Z,12.00
2023-02-07T17:46:15.440Z,13.00
2023-02-07T17:47:47.190Z,13.77
2023-02-07T17:49:18.700Z,13.22
2023-02-07T17:50:50.631Z,12.00
2023-02-07T17:52:27.539Z,13.06
2023-02-07T17:54:04.406Z,14.07
2023-02-07T17:55:58.113Z,15.06
2023-02-07T17:57:31.139Z,14.00
2023-02-07T17:59:03.957Z,12.22
2023-02-07T18:00:36.175Z,15.95
2023-02-07T18:02:07.685Z,14.11
2023-02-07T18:03:56.067Z,13.42
2023-02-07T18:05:44.881Z,13.35
2023-02-07T18:07:34.426Z,12.54
2023-02-07T18:09:50.090Z,13.29
2023-02-07T18:11:23.350Z,13.11
2023-02-07T18:13:14.901Z,14.38
2023-02-07T18:14:59.107Z,16.50
2023-02-07T18:16:31.806Z,15.87
2023-02-07T18:18:03.644Z,15.02
2023-02-07T18:19:35.312Z,15.54
2023-02-07T18:21:07.266Z,18.42
2023-02-07T18:22:38.977Z,18.21
2023-02-07T18:24:10.652Z,16.20
2023-02-07T18:25:42.481Z,13.59
2023-02-07T18:27:14.173Z,14.75
2023-02-07T18:28:45.744Z,16.91
2023-02-07T18:30:27.355Z,16.39
2023-02-07T18:32:04.336Z,17.19
2023-02-07T18:33:36.313Z,15.99
2023-02-07T18:35:07.837Z,17.29
2023-02-07T18:36:39.797Z,17.58
2023-02-07T18:38:11.789Z,15.38
2023-02-07T18:39:44.098Z,15.87
2023-02-07T18:41:17.337Z,15.93
2023-02-07T18:42:59.690Z,16.17
2023-02-07T18:44:31.578Z,17.08
2023-02-07T18:46:14.254Z,17.25
2023-02-07T18:47:45.649Z,16.98
2023-02-07T18:49:24.393Z,15.93
2023-02-07T18:50:55.847Z,17.39
2023-02-07T18:52:27.629Z,17.11
2023-02-07T18:53:59.114Z,17.22
2023-02-07T18:55:40.455Z,17.34
2023-02-07T18:57:39.875Z,16.46
2023-02-07T18:59:36.091Z,15.62
2023-02-07T19:01:14.945Z,16.60
2023-02-07T19:02:46.486Z,17.70
2023-02-07T19:04:17.917Z,18.38
2023-02-07T19:05:50.095Z,17.18
2023-02-07T19:07:21.766Z,17.18
2023-02-07T19:09:00.094Z,17.63
2023-02-07T19:10:31.707Z,19.14
2023-02-07T19:12:20.118Z,18.91
2023-02-07T19:13:51.709Z,18.19
2023-02-07T19:15:33.532Z,17.93
2023-02-07T19:17:19.572Z,17.96
2023-02-07T19:18:54.429Z,21.19
2023-02-07T19:20:26.172Z,21.75
2023-02-07T19:22:05.742Z,20.46
2023-02-07T19:23:37.219Z,17.70
2023-02-07T19:25:43.720Z,20.85
2023-02-07T19:27:15.169Z,20.84
2023-02-07T19:28:46.724Z,20.17
2023-02-07T19:30:18.435Z,21.25
2023-02-07T19:31:50.018Z,22.45
2023-02-07T19:33:21.559Z,21.88
2023-02-07T19:34:52.949Z,21.58
2023-02-07T19:36:35.359Z,21.58
2023-02-07T19:38:15.342Z,21.04
2023-02-07T19:42:00.943Z,20.92
2023-02-07T19:44:03.685Z,23.18
2023-02-07T19:45:35.012Z,22.83
2023-02-07T19:47:19.500Z,21.22
2023-02-07T19:48:52.332Z,24.10
2023-02-07T19:50:23.718Z,22.53
2023-02-07T19:52:07.834Z,23.97
2023-02-07T19:53:44.334Z,23.30
2023-02-07T19:55:20.775Z,22.72
2023-02-07T19:56:52.129Z,22.51
2023-02-07T19:58:47.028Z,20.83
2023-02-07T20:00:18.335Z,24.33
2023-02-07T20:01:49.766Z,23.29
2023-02-07T20:03:31.188Z,25.19
2023-02-07T20:05:24.667Z,22.90
2023-02-07T20:09:24.910Z,25.36
2023-02-07T20:11:03.992Z,24.29
2023-02-07T20:12:35.731Z,26.44
2023-02-07T20:14:07.612Z,26.34
2023-02-07T20:15:40.301Z,25.67
2023-02-07T20:17:33.667Z,27.25
2023-02-07T20:19:05.268Z,27.11
2023-02-07T20:21:06.438Z,26.02